sensor_id;sensor_type;location;lat;lon;timestamp;pressure;altitude;pressure_sealevel;temperature;humidity
15308;BME280;7755;52.208;6.964;2022-12-07T00:00:37;101271.41;;;5.22;100.00
15308;BME280;7755;52.208;6.964;2022-12-07T00:04:40;101262.88;;;5.18;100.00
15308;BME280;7755;52.208;6.964;2022-12-07T00:08:45;101258.50;;;5.17;100.00
15308;BME280;7755;52.208;6.964;2022-12-07T00:12:48;101253.88;;;5.11;100.00
15308;BME280;7755;52.208;6.964;2022-12-07T00:16:51;101252.13;;;5.04;100.00
15308;BME280;7755;52.208;6.964;2022-12-07T00:20:59;101253.09;;;4.96;100.00
15308;BME280;7755;52.208;6.964;2022-12-07T00:25:04;101253.22;;;4.88;100.00
15308;BME280;7755;52.208;6.964;2022-12-07T00:29:09;101241.34;;;4.82;100.00
15308;BME280;7755;52.208;6.964;2022-12-07T00:33:14;101256.13;;;4.72;100.00
15308;BME280;7755;52.208;6.964;2022-12-07T00:37:16;101246.56;;;4.69;100.00
15308;BME280;7755;52.208;6.964;2022-12-07T00:41:22;101245.91;;;4.67;100.00
15308;BME280;7755;52.208;6.964;2022-12-07T00:45:26;101247.69;;;4.60;100.00
15308;BME280;7755;52.208;6.964;2022-12-07T00:49:28;101240.34;;;4.54;100.00
15308;BME280;7755;52.208;6.964;2022-12-07T00:53:33;101234.91;;;4.47;100.00
15308;BME280;7755;52.208;6.964;2022-12-07T00:57:43;101229.88;;;4.44;100.00
15308;BME280;7755;52.208;6.964;2022-12-07T01:01:46;101234.97;;;4.39;100.00
15308;BME280;7755;52.208;6.964;2022-12-07T01:05:50;101234.72;;;4.34;100.00
15308;BME280;7755;52.208;6.964;2022-12-07T01:09:53;101235.91;;;4.31;100.00
15308;BME280;7755;52.208;6.964;2022-12-07T01:13:59;101224.50;;;4.29;100.00
15308;BME280;7755;52.208;6.964;2022-12-07T01:18:02;101235.81;;;4.25;100.00
15308;BME280;7755;52.208;6.964;2022-12-07T01:22:05;101239.94;;;4.21;100.00
15308;BME280;7755;52.208;6.964;2022-12-07T01:26:11;101235.09;;;4.16;100.00
15308;BME280;7755;52.208;6.964;2022-12-07T01:30:15;101232.94;;;4.11;100.00
15308;BME280;7755;52.208;6.964;2022-12-07T01:34:18;101232.50;;;4.08;100.00
15308;BME280;7755;52.208;6.964;2022-12-07T01:38:21;101229.81;;;4.08;100.00
15308;BME280;7755;52.208;6.964;2022-12-07T01:42:24;101227.66;;;4.03;100.00
15308;BME280;7755;52.208;6.964;2022-12-07T01:46:28;101237.09;;;3.99;100.00
15308;BME280;7755;52.208;6.964;2022-12-07T01:50:31;101230.06;;;3.98;100.00
15308;BME280;7755;52.208;6.964;2022-12-07T01:54:34;101228.59;;;3.96;100.00
15308;BME280;7755;52.208;6.964;2022-12-07T01:58:38;101234.50;;;3.91;100.00
15308;BME280;7755;52.208;6.964;2022-12-07T02:02:44;101232.00;;;3.90;100.00
15308;BME280;7755;52.208;6.964;2022-12-07T02:06:50;101233.03;;;3.89;100.00
15308;BME280;7755;52.208;6.964;2022-12-07T02:10:52;101230.06;;;3.83;100.00
15308;BME280;7755;52.208;6.964;2022-12-07T02:14:59;101228.75;;;3.79;100.00
15308;BME280;7755;52.208;6.964;2022-12-07T02:19:28;101230.59;;;3.79;100.00
15308;BME280;7755;52.208;6.964;2022-12-07T02:23:59;101221.88;;;3.77;100.00
15308;BME280;7755;52.208;6.964;2022-12-07T02:28:12;101225.59;;;3.76;100.00
15308;BME280;7755;52.208;6.964;2022-12-07T02:32:26;101218.56;;;3.75;100.00
15308;BME280;7755;52.208;6.964;2022-12-07T02:36:34;101223.44;;;3.71;100.00
15308;BME280;7755;52.208;6.964;2022-12-07T02:40:44;101226.50;;;3.68;100.00
15308;BME280;7755;52.208;6.964;2022-12-07T02:44:49;101227.06;;;3.64;100.00
15308;BME280;7755;52.208;6.964;2022-12-07T02:48:54;101228.91;;;3.63;100.00
15308;BME280;7755;52.208;6.964;2022-12-07T02:52:57;101227.25;;;3.62;100.00
15308;BME280;7755;52.208;6.964;2022-12-07T02:57:06;101231.13;;;3.60;100.00
15308;BME280;7755;52.208;6.964;2022-12-07T03:01:22;101225.91;;;3.58;100.00
15308;BME280;7755;52.208;6.964;2022-12-07T03:05:41;101231.66;;;3.55;100.00
15308;BME280;7755;52.208;6.964;2022-12-07T03:09:52;101223.78;;;3.53;100.00
15308;BME280;7755;52.208;6.964;2022-12-07T03:14:00;101236.56;;;3.51;100.00
15308;BME280;7755;52.208;6.964;2022-12-07T03:18:07;101222.78;;;3.54;100.00
15308;BME280;7755;52.208;6.964;2022-12-07T03:22:13;101219.06;;;3.55;100.00
15308;BME280;7755;52.208;6.964;2022-12-07T03:26:18;101217.84;;;3.58;100.00
15308;BME280;7755;52.208;6.964;2022-12-07T03:30:27;101219.34;;;3.61;100.00
15308;BME280;7755;52.208;6.964;2022-12-07T03:34:34;101225.75;;;3.60;100.00
15308;BME280;7755;52.208;6.964;2022-12-07T03:38:46;101212.13;;;3.61;100.00
15308;BME280;7755;52.208;6.964;2022-12-07T03:42:51;101212.78;;;3.63;100.00
15308;BME280;7755;52.208;6.964;2022-12-07T03:47:01;101196.63;;;3.63;100.00
15308;BME280;7755;52.208;6.964;2022-12-07T03:51:11;101198.88;;;3.60;100.00
15308;BME280;7755;52.208;6.964;2022-12-07T03:55:22;101197.38;;;3.57;100.00
15308;BME280;7755;52.208;6.964;2022-12-07T03:59:27;101203.13;;;3.54;100.00
15308;BME280;7755;52.208;6.964;2022-12-07T04:03:31;101200.44;;;3.54;100.00
15308;BME280;7755;52.208;6.964;2022-12-07T04:07:34;101203.00;;;3.47;100.00
15308;BME280;7755;52.208;6.964;2022-12-07T04:11:38;101204.19;;;3.45;100.00
15308;BME280;7755;52.208;6.964;2022-12-07T04:15:40;101199.56;;;3.39;100.00
15308;BME280;7755;52.208;6.964;2022-12-07T04:19:43;101204.47;;;3.35;100.00
15308;BME280;7755;52.208;6.964;2022-12-07T04:23:46;101212.91;;;3.32;100.00
15308;BME280;7755;52.208;6.964;2022-12-07T04:27:50;101217.25;;;3.33;100.00
15308;BME280;7755;52.208;6.964;2022-12-07T04:31:53;101215.41;;;3.34;100.00
15308;BME280;7755;52.208;6.964;2022-12-07T04:35:56;101218.09;;;3.34;100.00
15308;BME280;7755;52.208;6.964;2022-12-07T04:39:59;101202.25;;;3.39;100.00
15308;BME280;7755;52.208;6.964;2022-12-07T04:44:04;101206.25;;;3.43;100.00
15308;BME280;7755;52.208;6.964;2022-12-07T04:48:08;101205.88;;;3.46;100.00
15308;BME280;7755;52.208;6.964;2022-12-07T04:52:11;101200.31;;;3.47;100.00
15308;BME280;7755;52.208;6.964;2022-12-07T04:56:14;101196.44;;;3.50;100.00
15308;BME280;7755;52.208;6.964;2022-12-07T05:00:19;101197.75;;;3.54;100.00
15308;BME280;7755;52.208;6.964;2022-12-07T05:04:22;101195.91;;;3.54;100.00
15308;BME280;7755;52.208;6.964;2022-12-07T05:08:25;101192.56;;;3.52;100.00
15308;BME280;7755;52.208;6.964;2022-12-07T05:12:27;101191.06;;;3.50;100.00
15308;BME280;7755;52.208;6.964;2022-12-07T05:16:32;101195.50;;;3.43;100.00
15308;BME280;7755;52.208;6.964;2022-12-07T05:20:35;101196.03;;;3.38;100.00
15308;BME280;7755;52.208;6.964;2022-12-07T05:24:43;101204.47;;;3.35;100.00
15308;BME280;7755;52.208;6.964;2022-12-07T05:28:50;101198.44;;;3.33;100.00
15308;BME280;7755;52.208;6.964;2022-12-07T05:32:54;101198.44;;;3.33;100.00
15308;BME280;7755;52.208;6.964;2022-12-07T05:36:57;101194.25;;;3.31;100.00
15308;BME280;7755;52.208;6.964;2022-12-07T05:41:00;101197.41;;;3.34;100.00
15308;BME280;7755;52.208;6.964;2022-12-07T05:45:05;101189.69;;;3.31;100.00
15308;BME280;7755;52.208;6.964;2022-12-07T05:49:09;101179.31;;;3.28;100.00
15308;BME280;7755;52.208;6.964;2022-12-07T05:53:12;101183.56;;;3.22;100.00
15308;BME280;7755;52.208;6.964;2022-12-07T05:57:22;101185.13;;;3.17;100.00
15308;BME280;7755;52.208;6.964;2022-12-07T06:01:24;101186.97;;;3.16;100.00
15308;BME280;7755;52.208;6.964;2022-12-07T06:05:28;101178.28;;;3.14;100.00
15308;BME280;7755;52.208;6.964;2022-12-07T06:09:32;101184.16;;;3.10;100.00
15308;BME280;7755;52.208;6.964;2022-12-07T06:13:35;101186.84;;;3.10;100.00
15308;BME280;7755;52.208;6.964;2022-12-07T06:17:44;101179.16;;;3.07;100.00
15308;BME280;7755;52.208;6.964;2022-12-07T06:21:48;101189.44;;;3.03;100.00
15308;BME280;7755;52.208;6.964;2022-12-07T06:25:51;101190.81;;;2.99;100.00
15308;BME280;7755;52.208;6.964;2022-12-07T06:29:53;101184.94;;;2.95;100.00
15308;BME280;7755;52.208;6.964;2022-12-07T06:34:00;101191.34;;;2.94;100.00
15308;BME280;7755;52.208;6.964;2022-12-07T06:38:04;101193.84;;;2.96;100.00
15308;BME280;7755;52.208;6.964;2022-12-07T06:42:07;101193.00;;;2.95;100.00
15308;BME280;7755;52.208;6.964;2022-12-07T06:46:09;101200.88;;;2.97;100.00
15308;BME280;7755;52.208;6.964;2022-12-07T06:50:12;101200.53;;;3.00;100.00
15308;BME280;7755;52.208;6.964;2022-12-07T06:54:17;101202.84;;;3.03;100.00
15308;BME280;7755;52.208;6.964;2022-12-07T06:58:19;101201.84;;;3.04;100.00
15308;BME280;7755;52.208;6.964;2022-12-07T07:02:22;101204.38;;;3.06;100.00
15308;BME280;7755;52.208;6.964;2022-12-07T07:06:25;101205.00;;;3.08;100.00
15308;BME280;7755;52.208;6.964;2022-12-07T07:10:29;101204.38;;;3.06;100.00
15308;BME280;7755;52.208;6.964;2022-12-07T07:14:32;101198.69;;;3.00;100.00
15308;BME280;7755;52.208;6.964;2022-12-07T07:18:35;101203.75;;;2.95;100.00
15308;BME280;7755;52.208;6.964;2022-12-07T07:22:38;101202.09;;;2.94;100.00
15308;BME280;7755;52.208;6.964;2022-12-07T07:26:42;101206.97;;;2.91;100.00
15308;BME280;7755;52.208;6.964;2022-12-07T07:30:45;101209.66;;;2.91;100.00
15308;BME280;7755;52.208;6.964;2022-12-07T07:34:48;101217.88;;;2.89;100.00
15308;BME280;7755;52.208;6.964;2022-12-07T07:38:51;101220.22;;;2.92;100.00
15308;BME280;7755;52.208;6.964;2022-12-07T07:42:55;101227.28;;;2.93;100.00
15308;BME280;7755;52.208;6.964;2022-12-07T07:46:59;101220.88;;;2.94;100.00
15308;BME280;7755;52.208;6.964;2022-12-07T07:51:05;101230.78;;;2.94;100.00
15308;BME280;7755;52.208;6.964;2022-12-07T07:55:08;101232.28;;;2.96;100.00
15308;BME280;7755;52.208;6.964;2022-12-07T07:59:12;101228.41;;;2.99;100.00
15308;BME280;7755;52.208;6.964;2022-12-07T08:03:15;101222.50;;;3.04;100.00
15308;BME280;7755;52.208;6.964;2022-12-07T08:07:18;101229.84;;;3.10;100.00
15308;BME280;7755;52.208;6.964;2022-12-07T08:11:21;101223.09;;;3.14;100.00
15308;BME280;7755;52.208;6.964;2022-12-07T08:15:26;101224.25;;;3.19;100.00
15308;BME280;7755;52.208;6.964;2022-12-07T08:19:29;101224.72;;;3.23;100.00
15308;BME280;7755;52.208;6.964;2022-12-07T08:23:33;101214.72;;;3.32;100.00
15308;BME280;7755;52.208;6.964;2022-12-07T08:27:40;101222.06;;;3.38;100.00
15308;BME280;7755;52.208;6.964;2022-12-07T08:31:44;101220.41;;;3.37;100.00
15308;BME280;7755;52.208;6.964;2022-12-07T08:35:47;101223.28;;;3.35;100.00
15308;BME280;7755;52.208;6.964;2022-12-07T08:39:50;101231.53;;;3.34;100.00
15308;BME280;7755;52.208;6.964;2022-12-07T08:43:53;101236.53;;;3.37;100.00
15308;BME280;7755;52.208;6.964;2022-12-07T08:48:00;101235.34;;;3.39;100.00
15308;BME280;7755;52.208;6.964;2022-12-07T08:52:05;101232.47;;;3.41;100.00
15308;BME280;7755;52.208;6.964;2022-12-07T08:56:08;101230.63;;;3.41;100.00
15308;BME280;7755;52.208;6.964;2022-12-07T09:00:13;101234.97;;;3.42;100.00
15308;BME280;7755;52.208;6.964;2022-12-07T09:04:17;101243.88;;;3.43;100.00
15308;BME280;7755;52.208;6.964;2022-12-07T09:08:20;101240.47;;;3.49;100.00
15308;BME280;7755;52.208;6.964;2022-12-07T09:12:24;101240.28;;;3.50;100.00
15308;BME280;7755;52.208;6.964;2022-12-07T09:16:27;101226.63;;;3.52;100.00
15308;BME280;7755;52.208;6.964;2022-12-07T09:20:31;101234.91;;;3.50;100.00
15308;BME280;7755;52.208;6.964;2022-12-07T09:24:34;101242.13;;;3.50;100.00
15308;BME280;7755;52.208;6.964;2022-12-07T09:28:37;101240.09;;;3.52;100.00
15308;BME280;7755;52.208;6.964;2022-12-07T09:32:40;101238.25;;;3.52;100.00
15308;BME280;7755;52.208;6.964;2022-12-07T09:36:45;101233.16;;;3.58;100.00
15308;BME280;7755;52.208;6.964;2022-12-07T09:40:48;101230.69;;;3.71;100.00
15308;BME280;7755;52.208;6.964;2022-12-07T09:44:51;101231.72;;;3.84;100.00
15308;BME280;7755;52.208;6.964;2022-12-07T09:48:54;101232.66;;;3.92;100.00
15308;BME280;7755;52.208;6.964;2022-12-07T09:53:06;101232.75;;;3.98;100.00
15308;BME280;7755;52.208;6.964;2022-12-07T09:57:11;101227.03;;;4.01;100.00
15308;BME280;7755;52.208;6.964;2022-12-07T10:01:16;101230.84;;;4.07;100.00
15308;BME280;7755;52.208;6.964;2022-12-07T10:05:23;101224.03;;;4.11;100.00
15308;BME280;7755;52.208;6.964;2022-12-07T10:09:28;101230.16;;;4.20;100.00
15308;BME280;7755;52.208;6.964;2022-12-07T10:13:37;101227.94;;;4.23;100.00
15308;BME280;7755;52.208;6.964;2022-12-07T10:17:47;101228.59;;;4.25;100.00
15308;BME280;7755;52.208;6.964;2022-12-07T10:22:04;101216.78;;;4.26;100.00
15308;BME280;7755;52.208;6.964;2022-12-07T10:26:27;101218.47;;;4.42;100.00
15308;BME280;7755;52.208;6.964;2022-12-07T10:30:31;101208.22;;;4.52;100.00
15308;BME280;7755;52.208;6.964;2022-12-07T10:34:36;101204.22;;;4.63;100.00
15308;BME280;7755;52.208;6.964;2022-12-07T10:38:58;101196.50;;;4.75;100.00
15308;BME280;7755;52.208;6.964;2022-12-07T10:43:18;101206.94;;;4.84;100.00
15308;BME280;7755;52.208;6.964;2022-12-07T10:47:32;101204.25;;;4.84;100.00
15308;BME280;7755;52.208;6.964;2022-12-07T10:51:41;101192.00;;;4.82;100.00
15308;BME280;7755;52.208;6.964;2022-12-07T10:55:56;101186.03;;;4.86;100.00
15308;BME280;7755;52.208;6.964;2022-12-07T11:00:11;101176.16;;;4.93;100.00
15308;BME280;7755;52.208;6.964;2022-12-07T11:04:26;101172.25;;;4.96;100.00
15308;BME280;7755;52.208;6.964;2022-12-07T11:08:44;101168.81;;;5.02;100.00
15308;BME280;7755;52.208;6.964;2022-12-07T11:12:58;101161.34;;;5.04;100.00
15308;BME280;7755;52.208;6.964;2022-12-07T11:17:10;101151.88;;;5.08;100.00
15308;BME280;7755;52.208;6.964;2022-12-07T11:21:20;101145.03;;;5.12;100.00
15308;BME280;7755;52.208;6.964;2022-12-07T11:25:31;101138.25;;;5.16;100.00
15308;BME280;7755;52.208;6.964;2022-12-07T11:29:47;101141.38;;;5.20;100.00
15308;BME280;7755;52.208;6.964;2022-12-07T11:33:57;101138.53;;;5.28;100.00
15308;BME280;7755;52.208;6.964;2022-12-07T11:38:13;101132.03;;;5.44;100.00
15308;BME280;7755;52.208;6.964;2022-12-07T11:42:21;101130.06;;;5.59;100.00
15308;BME280;7755;52.208;6.964;2022-12-07T11:46:27;101133.00;;;5.64;100.00
15308;BME280;7755;52.208;6.964;2022-12-07T11:50:41;101131.75;;;5.67;100.00
15308;BME280;7755;52.208;6.964;2022-12-07T11:54:45;101130.16;;;5.72;100.00
15308;BME280;7755;52.208;6.964;2022-12-07T11:58:54;101134.13;;;5.77;100.00
15308;BME280;7755;52.208;6.964;2022-12-07T12:03:01;101126.44;;;5.80;100.00
15308;BME280;7755;52.208;6.964;2022-12-07T12:07:07;101121.47;;;5.77;100.00
15308;BME280;7755;52.208;6.964;2022-12-07T12:11:42;101117.69;;;5.71;100.00
15308;BME280;7755;52.208;6.964;2022-12-07T12:16:04;101106.69;;;5.73;100.00
15308;BME280;7755;52.208;6.964;2022-12-07T12:20:19;101111.94;;;5.81;100.00
15308;BME280;7755;52.208;6.964;2022-12-07T12:24:27;101112.44;;;5.91;100.00
15308;BME280;7755;52.208;6.964;2022-12-07T12:28:37;101103.97;;;6.01;100.00
15308;BME280;7755;52.208;6.964;2022-12-07T12:32:49;101109.41;;;6.08;100.00
15308;BME280;7755;52.208;6.964;2022-12-07T12:36:52;101107.53;;;6.08;100.00
15308;BME280;7755;52.208;6.964;2022-12-07T12:40:56;101098.00;;;6.12;100.00
15308;BME280;7755;52.208;6.964;2022-12-07T12:45:16;101086.16;;;6.13;100.00
15308;BME280;7755;52.208;6.964;2022-12-07T12:54:04;101081.41;;;6.22;100.00
15308;BME280;7755;52.208;6.964;2022-12-07T12:58:39;101082.03;;;6.17;100.00
15308;BME280;7755;52.208;6.964;2022-12-07T13:02:48;101083.06;;;6.23;100.00
15308;BME280;7755;52.208;6.964;2022-12-07T13:06:51;101076.22;;;6.20;100.00
15308;BME280;7755;52.208;6.964;2022-12-07T13:11:17;101071.66;;;6.21;100.00
15308;BME280;7755;52.208;6.964;2022-12-07T13:15:34;101067.88;;;6.15;100.00
15308;BME280;7755;52.208;6.964;2022-12-07T13:19:59;101068.31;;;6.12;100.00
15308;BME280;7755;52.208;6.964;2022-12-07T13:24:10;101062.91;;;6.12;100.00
15308;BME280;7755;52.208;6.964;2022-12-07T13:28:16;101059.16;;;6.07;100.00
15308;BME280;7755;52.208;6.964;2022-12-07T13:32:24;101046.47;;;6.00;100.00
15308;BME280;7755;52.208;6.964;2022-12-07T13:36:29;101050.16;;;5.93;100.00
15308;BME280;7755;52.208;6.964;2022-12-07T13:40:36;101041.44;;;5.91;100.00
15308;BME280;7755;52.208;6.964;2022-12-07T13:44:40;101034.75;;;5.87;100.00
15308;BME280;7755;52.208;6.964;2022-12-07T13:48:46;101022.75;;;5.89;100.00
15308;BME280;7755;52.208;6.964;2022-12-07T13:52:50;101028.56;;;5.93;100.00
15308;BME280;7755;52.208;6.964;2022-12-07T13:56:53;101020.69;;;5.91;100.00
15308;BME280;7755;52.208;6.964;2022-12-07T14:00:56;101027.97;;;5.91;100.00
15308;BME280;7755;52.208;6.964;2022-12-07T14:05:09;101023.72;;;5.82;100.00
15308;BME280;7755;52.208;6.964;2022-12-07T14:09:18;101016.44;;;5.75;100.00
15308;BME280;7755;52.208;6.964;2022-12-07T14:13:28;101016.44;;;5.75;100.00
15308;BME280;7755;52.208;6.964;2022-12-07T14:17:32;101019.34;;;5.74;100.00
15308;BME280;7755;52.208;6.964;2022-12-07T14:21:36;101013.72;;;5.75;100.00
15308;BME280;7755;52.208;6.964;2022-12-07T14:25:47;101024.72;;;5.74;100.00
15308;BME280;7755;52.208;6.964;2022-12-07T14:29:52;101016.44;;;5.75;100.00
15308;BME280;7755;52.208;6.964;2022-12-07T14:33:58;101009.00;;;5.78;100.00
15308;BME280;7755;52.208;6.964;2022-12-07T14:38:03;101007.53;;;5.82;100.00
15308;BME280;7755;52.208;6.964;2022-12-07T14:42:07;100999.25;;;5.83;100.00
15308;BME280;7755;52.208;6.964;2022-12-07T14:46:10;101009.41;;;5.88;100.00
15308;BME280;7755;52.208;6.964;2022-12-07T14:50:14;101000.28;;;5.89;100.00
15308;BME280;7755;52.208;6.964;2022-12-07T14:54:20;101003.00;;;5.89;100.00
15308;BME280;7755;52.208;6.964;2022-12-07T14:58:23;100991.38;;;5.88;100.00
15308;BME280;7755;52.208;6.964;2022-12-07T15:02:25;100987.63;;;5.83;100.00
15308;BME280;7755;52.208;6.964;2022-12-07T15:06:28;100990.94;;;5.78;100.00
15308;BME280;7755;52.208;6.964;2022-12-07T15:10:33;100991.72;;;5.72;100.00
15308;BME280;7755;52.208;6.964;2022-12-07T15:14:40;100984.25;;;5.67;100.00
15308;BME280;7755;52.208;6.964;2022-12-07T15:18:42;100987.97;;;5.66;100.00
15308;BME280;7755;52.208;6.964;2022-12-07T15:23:05;100985.47;;;5.65;100.00
15308;BME280;7755;52.208;6.964;2022-12-07T15:27:09;100982.56;;;5.60;100.00
15308;BME280;7755;52.208;6.964;2022-12-07T15:31:13;100982.13;;;5.56;100.00
15308;BME280;7755;52.208;6.964;2022-12-07T15:35:38;100980.25;;;5.50;100.00
15308;BME280;7755;52.208;6.964;2022-12-07T15:39:41;100977.50;;;5.43;100.00
15308;BME280;7755;52.208;6.964;2022-12-07T15:43:45;100978.72;;;5.41;100.00
15308;BME280;7755;52.208;6.964;2022-12-07T15:48:06;100974.13;;;5.35;100.00
15308;BME280;7755;52.208;6.964;2022-12-07T15:52:29;100977.22;;;5.32;100.00
15308;BME280;7755;52.208;6.964;2022-12-07T15:56:31;100966.22;;;5.27;100.00
15308;BME280;7755;52.208;6.964;2022-12-07T16:00:35;100958.75;;;5.22;100.00
15308;BME280;7755;52.208;6.964;2022-12-07T16:04:38;100956.44;;;5.19;100.00
15308;BME280;7755;52.208;6.964;2022-12-07T16:08:42;100965.34;;;5.19;100.00
15308;BME280;7755;52.208;6.964;2022-12-07T16:12:44;100963.47;;;5.20;100.00
15308;BME280;7755;52.208;6.964;2022-12-07T16:16:49;100962.84;;;5.18;100.00
15308;BME280;7755;52.208;6.964;2022-12-07T16:20:51;100948.75;;;5.16;100.00
15308;BME280;7755;52.208;6.964;2022-12-07T16:24:54;100939.84;;;5.15;100.00
15308;BME280;7755;52.208;6.964;2022-12-07T16:28:57;100942.53;;;5.15;100.00
15308;BME280;7755;52.208;6.964;2022-12-07T16:33:01;100942.53;;;5.15;100.00
15308;BME280;7755;52.208;6.964;2022-12-07T16:37:04;100947.09;;;5.15;100.00
15308;BME280;7755;52.208;6.964;2022-12-07T16:41:08;100933.63;;;5.15;100.00
15308;BME280;7755;52.208;6.964;2022-12-07T16:45:11;100931.09;;;5.13;100.00
15308;BME280;7755;52.208;6.964;2022-12-07T16:49:22;100933.38;;;5.10;100.00
15308;BME280;7755;52.208;6.964;2022-12-07T16:53:26;100922.97;;;5.07;100.00
15308;BME280;7755;52.208;6.964;2022-12-07T16:57:30;100927.50;;;5.00;100.00
15308;BME280;7755;52.208;6.964;2022-12-07T17:01:32;100926.25;;;4.96;100.00
15308;BME280;7755;52.208;6.964;2022-12-07T17:05:39;100921.84;;;4.88;100.00
15308;BME280;7755;52.208;6.964;2022-12-07T17:09:42;100913.94;;;4.86;100.00
15308;BME280;7755;52.208;6.964;2022-12-07T17:13:45;100916.63;;;4.86;100.00
15308;BME280;7755;52.208;6.964;2022-12-07T17:18:05;100918.72;;;4.84;100.00
15308;BME280;7755;52.208;6.964;2022-12-07T17:22:09;100914.34;;;4.83;100.00
15308;BME280;7755;52.208;6.964;2022-12-07T17:26:15;100902.75;;;4.83;100.00
15308;BME280;7755;52.208;6.964;2022-12-07T17:30:19;100904.00;;;4.87;100.00
15308;BME280;7755;52.208;6.964;2022-12-07T17:34:21;100890.94;;;4.84;100.00
15308;BME280;7755;52.208;6.964;2022-12-07T17:38:27;100895.06;;;4.80;100.00
15308;BME280;7755;52.208;6.964;2022-12-07T17:42:31;100892.19;;;4.81;100.00
15308;BME280;7755;52.208;6.964;2022-12-07T17:46:41;100896.53;;;4.82;100.00
15308;BME280;7755;52.208;6.964;2022-12-07T17:50:43;100888.84;;;4.79;100.00
15308;BME280;7755;52.208;6.964;2022-12-07T17:55:06;100882.00;;;4.77;100.00
15308;BME280;7755;52.208;6.964;2022-12-07T17:59:09;100876.38;;;4.72;100.00
15308;BME280;7755;52.208;6.964;2022-12-07T18:03:12;100879.84;;;4.65;100.00
15308;BME280;7755;52.208;6.964;2022-12-07T18:07:15;100879.41;;;4.62;100.00
15308;BME280;7755;52.208;6.964;2022-12-07T18:11:19;100869.69;;;4.61;100.00
15308;BME280;7755;52.208;6.964;2022-12-07T18:15:24;100866.09;;;4.54;100.00
15308;BME280;7755;52.208;6.964;2022-12-07T18:19:27;100865.25;;;4.53;100.00
15308;BME280;7755;52.208;6.964;2022-12-07T18:23:29;100863.41;;;4.54;100.00
15308;BME280;7755;52.208;6.964;2022-12-07T18:27:36;100862.41;;;4.55;100.00
15308;BME280;7755;52.208;6.964;2022-12-07T18:31:39;100862.41;;;4.55;100.00
15308;BME280;7755;52.208;6.964;2022-12-07T18:35:42;100847.06;;;4.55;100.00
15308;BME280;7755;52.208;6.964;2022-12-07T18:39:44;100850.78;;;4.54;100.00
15308;BME280;7755;52.208;6.964;2022-12-07T18:43:48;100847.84;;;4.49;100.00
15308;BME280;7755;52.208;6.964;2022-12-07T18:47:51;100845.75;;;4.45;100.00
15308;BME280;7755;52.208;6.964;2022-12-07T18:51:54;100853.41;;;4.41;100.00
15308;BME280;7755;52.208;6.964;2022-12-07T18:56:01;100843.47;;;4.42;100.00
15308;BME280;7755;52.208;6.964;2022-12-07T19:00:07;100846.31;;;4.40;100.00
15308;BME280;7755;52.208;6.964;2022-12-07T19:04:10;100848.00;;;4.41;100.00
15308;BME280;7755;52.208;6.964;2022-12-07T19:08:13;100846.31;;;4.40;100.00
15308;BME280;7755;52.208;6.964;2022-12-07T19:12:16;100850.25;;;4.37;100.00
15308;BME280;7755;52.208;6.964;2022-12-07T19:16:20;100852.31;;;4.35;100.00
15308;BME280;7755;52.208;6.964;2022-12-07T19:20:23;100854.81;;;4.37;100.00
15308;BME280;7755;52.208;6.964;2022-12-07T19:24:26;100838.66;;;4.37;100.00
15308;BME280;7755;52.208;6.964;2022-12-07T19:28:28;100842.59;;;4.34;100.00
15308;BME280;7755;52.208;6.964;2022-12-07T19:32:33;100824.94;;;4.32;100.00
15308;BME280;7755;52.208;6.964;2022-12-07T19:36:35;100832.41;;;4.30;100.00
15308;BME280;7755;52.208;6.964;2022-12-07T19:40:38;100823.69;;;4.28;100.00
15308;BME280;7755;52.208;6.964;2022-12-07T19:44:41;100818.69;;;4.25;100.00
15308;BME280;7755;52.208;6.964;2022-12-07T19:48:45;100809.16;;;4.22;100.00
15308;BME280;7755;52.208;6.964;2022-12-07T19:52:48;100812.88;;;4.21;100.00
15308;BME280;7755;52.208;6.964;2022-12-07T19:56:51;100798.78;;;4.19;100.00
15308;BME280;7755;52.208;6.964;2022-12-07T20:00:54;100790.69;;;4.19;100.00
15308;BME280;7755;52.208;6.964;2022-12-07T20:04:59;100792.13;;;4.15;100.00
15308;BME280;7755;52.208;6.964;2022-12-07T20:09:07;100794.16;;;4.13;100.00
15308;BME280;7755;52.208;6.964;2022-12-07T20:13:10;100776.56;;;4.10;100.00
15308;BME280;7755;52.208;6.964;2022-12-07T20:17:32;100780.28;;;4.09;100.00
15308;BME280;7755;52.208;6.964;2022-12-07T20:21:37;100783.38;;;4.06;100.00
15308;BME280;7755;52.208;6.964;2022-12-07T20:25:39;100767.25;;;4.06;100.00
15308;BME280;7755;52.208;6.964;2022-12-07T20:29:42;100765.56;;;4.05;100.00
15308;BME280;7755;52.208;6.964;2022-12-07T20:33:46;100766.59;;;4.04;100.00
15308;BME280;7755;52.208;6.964;2022-12-07T20:37:51;100766.59;;;4.04;100.00
15308;BME280;7755;52.208;6.964;2022-12-07T20:41:53;100767.38;;;3.98;100.00
15308;BME280;7755;52.208;6.964;2022-12-07T20:46:10;100754.13;;;3.97;100.00
15308;BME280;7755;52.208;6.964;2022-12-07T20:50:13;100753.31;;;3.96;100.00
15308;BME280;7755;52.208;6.964;2022-12-07T20:54:17;100746.00;;;3.90;100.00
15308;BME280;7755;52.208;6.964;2022-12-07T20:58:20;100748.66;;;3.83;100.00
15308;BME280;7755;52.208;6.964;2022-12-07T21:02:29;100753.19;;;3.83;100.00
15308;BME280;7755;52.208;6.964;2022-12-07T21:06:31;100751.34;;;3.83;100.00
15308;BME280;7755;52.208;6.964;2022-12-07T21:10:36;100749.47;;;3.84;100.00
15308;BME280;7755;52.208;6.964;2022-12-07T21:14:39;100744.72;;;3.79;100.00
15308;BME280;7755;52.208;6.964;2022-12-07T21:18:43;100739.50;;;3.78;100.00
15308;BME280;7755;52.208;6.964;2022-12-07T21:22:48;100734.78;;;3.80;100.00
15308;BME280;7755;52.208;6.964;2022-12-07T21:26:52;100734.13;;;3.78;100.00
15308;BME280;7755;52.208;6.964;2022-12-07T21:30:55;100728.94;;;3.76;100.00
15308;BME280;7755;52.208;6.964;2022-12-07T21:35:14;100726.72;;;3.80;100.00
15308;BME280;7755;52.208;6.964;2022-12-07T21:39:16;100732.25;;;3.78;100.00
15308;BME280;7755;52.208;6.964;2022-12-07T21:43:21;100731.63;;;3.76;100.00
15308;BME280;7755;52.208;6.964;2022-12-07T21:47:23;100718.19;;;3.76;100.00